Laramie, WY (82070)

01:28 AM MDT die 23o August, anno 2014 (GMT -0600)
Laramie Regional | Change Station
CLOSE
Current Station
Airport
Location: Laramie,
Elevation: 7270 ft
Nearby Weather Stations

Elev 7270 ft 41.32 °N, 105.67 °W | Updated 35 minutes ago

Mostly Cloudy
Plerumque Nubila
54 °F
Feels Like 54 °F
N
14
Ventus Variabilis Ventus from Magis Auster quam Eurus

Hodie
High -- | Low -- °F
--% Chance of Precip.
Yesterday
High -- | Low -- °F
Precip. -- in
6:20 AM 7:50 PM
Waning Crescent, 5% visible
Pressio 29.77 in
Visibilitas 10.0 milia passuum
Clouds Few 7000 ft
Plerumque Nubila 9000 ft
Frigus in quo Ros apparet 51 °F
Umor 90%
Rainfall 0.00 in
Snow Depth Not available.
UV 0 out of 12
Pollen 9.40 out of 12
Air Quality Not available.
Flu Activity Not available.
METAR KLAR 230653Z AUTO 16012KT 10SM FEW070 BKN090 12/11 A3008 RMK AO2 SLP081 T01220106 402170100

More Conditions Fewer Conditions

Pressio 29.77 in
Visibilitas 10.0 milia passuum
Clouds Few 7000 ft
Plerumque Nubila 9000 ft
Frigus in quo Ros apparet 51 °F
Umor 90%
Rainfall 0.00 in
Snow Depth Not available.
UV 0 out of 12
Pollen 9.40 out of 12
Air Quality Not available.
Flu Activity Not available.
METAR KLAR 230653Z AUTO 16012KT 10SM FEW070 BKN090 12/11 A3008 RMK AO2 SLP081 T01220106 402170100

More Conditions Fewer Conditions

10-Day Weather Forecast

Almanac

Astronomy

Aug. 23, 2014 Rise Set
Actual Time 6:20 AM MDT 7:50 PM MDT
Civil Twilight 5:51 AM MDT 8:19 PM MDT
Nautical Twilight 5:16 AM MDT 8:53 PM MDT
Astronomical Twilight 4:38 AM MDT 9:30 PM MDT
Moon 4:38 AM MDT 6:36 PM MDT
Length Of Visible Light 14h 27m
Length of Day
13h 29m
Tomorrow will be 2m 34s shorter.
Waning Crescent, 5% of the Moon is Illuminated
Hodie
Waning Crescent
Aug 25
New
Sep 2
First Quarter
Sep 8
Full
Sep 15
Last Quarter

Today's Extremes

State Highs State Lows

Community

WunderPhotos

Upload Photos

1,746,377 photos uploaded!

WunderBlogs® & News

By Dr. Jeff Masters
Director of Meteorology, Weather Underground
By Kari Strenfel
Meteorologist, Weather Underground
By Christopher C. Burt
Weather Historian, Weather Underground
August 23, 2014
August 23, 2014
August 22, 2014

Nearby

Snow Depth

Station Depth Elevation
Crow Creek 1 in 8330 ft
Brooklyn Lake 0 in 10220 ft
Cinnabar Park 1 in 9690 ft
Whiskey Park 0 in 8950 ft
Sand Lake 0 in 10050 ft

Earthquake Activity

City Distance Mag. Time & Date
No recent earthquake activity has been reported nearby.
Minimum magnitude displayed is 2.5.

Coastal Water Temperatures

Locus Calor
No Stations Reporting

Nearby Weather Stations